createdAt,value
2023-05-05T00:00:57.162Z,6380.00
2023-05-05T00:01:57.228Z,6481.00
2023-05-05T00:02:57.254Z,6442.00
2023-05-05T00:03:57.269Z,6254.00
2023-05-05T00:04:57.309Z,6233.00
2023-05-05T00:05:57.341Z,6226.00
2023-05-05T00:06:57.394Z,6302.00
2023-05-05T00:07:57.394Z,6348.00
2023-05-05T00:08:57.416Z,6395.00
2023-05-05T00:09:57.445Z,7290.00
2023-05-05T00:10:57.636Z,7253.00
2023-05-05T00:11:57.484Z,8456.00
2023-05-05T00:12:57.545Z,10217.00
2023-05-05T00:13:57.564Z,10667.00
2023-05-05T00:14:57.605Z,10941.00
2023-05-05T00:15:57.640Z,10906.00
2023-05-05T00:16:57.760Z,10254.00
2023-05-05T00:17:57.718Z,9774.00
2023-05-05T00:18:57.720Z,10172.00
2023-05-05T00:19:57.729Z,11023.00
2023-05-05T00:20:57.775Z,11014.00
2023-05-05T00:21:57.745Z,11232.00
2023-05-05T00:22:57.794Z,11582.00
2023-05-05T00:23:57.789Z,11466.00
2023-05-05T00:24:57.850Z,11885.00
2023-05-05T00:25:57.907Z,12044.00
2023-05-05T00:26:57.964Z,11527.00
2023-05-05T00:27:58.012Z,11336.00
2023-05-05T00:28:58.038Z,11597.00
2023-05-05T00:29:58.074Z,11273.00
2023-05-05T00:30:58.189Z,11348.00
2023-05-05T00:31:58.157Z,11628.00
2023-05-05T00:32:58.245Z,11130.00
2023-05-05T00:33:58.260Z,10811.00
2023-05-05T00:34:58.330Z,10803.00
2023-05-05T00:35:58.327Z,10508.00
2023-05-05T00:36:58.350Z,10147.00
2023-05-05T00:37:58.398Z,9960.00
2023-05-05T00:38:58.395Z,10185.00
2023-05-05T00:39:58.406Z,10866.00
2023-05-05T00:40:58.453Z,11393.00
2023-05-05T00:41:58.491Z,11376.00
2023-05-05T00:42:58.528Z,11144.00
2023-05-05T00:43:58.616Z,10807.00
2023-05-05T00:44:58.660Z,10242.00
2023-05-05T00:45:58.670Z,9231.00
2023-05-05T00:46:58.676Z,9690.00
2023-05-05T00:47:58.753Z,10129.00
2023-05-05T00:48:58.721Z,9728.00
2023-05-05T00:49:58.731Z,9408.00
2023-05-05T00:50:58.757Z,8972.00
2023-05-05T00:51:58.739Z,8219.00
2023-05-05T00:52:58.811Z,7947.00
2023-05-05T00:53:58.873Z,8141.00
2023-05-05T00:54:58.856Z,8617.00
2023-05-05T00:55:58.851Z,9219.00
2023-05-05T00:56:58.880Z,8972.00
2023-05-05T00:57:58.946Z,8683.00
2023-05-05T00:58:58.940Z,8603.00
2023-05-05T00:59:58.993Z,7999.00
2023-05-05T01:00:59.071Z,7672.00
2023-05-05T01:01:59.125Z,7707.00
2023-05-05T01:02:59.158Z,7572.00
2023-05-05T01:03:59.286Z,7810.00
2023-05-05T01:04:59.136Z,9343.00
2023-05-05T01:05:59.232Z,9007.00
2023-05-05T01:06:59.201Z,9534.00
2023-05-05T01:07:59.246Z,9947.00
2023-05-05T01:08:59.253Z,8963.00
2023-05-05T01:10:15.256Z,8124.00
2023-05-05T01:11:00.269Z,8004.00
2023-05-05T01:11:59.262Z,7930.00
2023-05-05T01:12:59.277Z,7576.00
2023-05-05T01:13:59.268Z,7157.00
2023-05-05T01:14:59.256Z,7004.00
2023-05-05T01:15:59.272Z,6855.00
2023-05-05T01:16:59.221Z,6828.00
2023-05-05T01:17:59.252Z,7267.00
2023-05-05T01:18:59.220Z,7608.00
2023-05-05T01:19:59.256Z,8155.00
2023-05-05T01:20:59.215Z,9305.00
2023-05-05T01:21:59.221Z,8641.00
2023-05-05T01:22:59.217Z,8183.00
2023-05-05T01:23:59.292Z,8168.00
2023-05-05T01:24:59.310Z,7946.00
2023-05-05T01:25:59.353Z,7506.00
2023-05-05T01:26:59.410Z,7722.00
2023-05-05T01:27:59.446Z,7800.00
2023-05-05T01:28:59.457Z,7343.00
2023-05-05T01:29:59.498Z,7391.00
2023-05-05T01:30:59.512Z,7757.00
2023-05-05T01:31:59.621Z,7268.00
2023-05-05T01:32:59.578Z,7018.00
2023-05-05T01:33:59.591Z,6707.00
2023-05-05T01:34:59.655Z,6712.00
2023-05-05T01:35:59.685Z,6753.00
2023-05-05T01:36:59.705Z,6768.00
2023-05-05T01:37:59.736Z,6648.00
2023-05-05T01:38:59.765Z,6561.00
2023-05-05T01:39:59.784Z,6518.00
2023-05-05T01:40:59.767Z,6817.00
2023-05-05T01:41:59.825Z,7755.00
2023-05-05T01:42:59.830Z,8942.00
2023-05-05T01:43:59.842Z,9821.00
2023-05-05T01:44:59.890Z,10567.00
2023-05-05T01:45:59.903Z,9951.00
2023-05-05T01:46:59.952Z,9983.00
2023-05-05T01:47:59.992Z,10381.00
2023-05-05T01:49:00.035Z,10914.00
2023-05-05T01:50:00.060Z,10574.00
2023-05-05T01:51:00.114Z,10715.00
2023-05-05T01:52:00.093Z,11172.00
2023-05-05T01:53:00.105Z,10864.00
2023-05-05T01:54:00.158Z,10590.00
2023-05-05T01:55:00.175Z,11159.00
2023-05-05T01:56:00.149Z,11050.00
2023-05-05T01:57:00.218Z,11409.00
2023-05-05T01:58:00.253Z,11419.00
2023-05-05T01:59:00.359Z,10854.00
2023-05-05T02:00:00.336Z,10420.00
2023-05-05T02:01:00.492Z,9956.00
2023-05-05T02:02:00.476Z,9664.00
2023-05-05T02:03:00.566Z,9922.00
2023-05-05T02:04:00.500Z,10089.00
2023-05-05T02:05:00.538Z,10550.00
2023-05-05T02:06:00.505Z,10601.00
2023-05-05T02:07:00.515Z,10522.00
2023-05-05T02:08:00.546Z,10375.00
2023-05-05T02:09:00.600Z,10458.00
2023-05-05T02:10:00.643Z,10724.00
2023-05-05T02:11:00.691Z,10728.00
2023-05-05T02:12:00.725Z,10450.00
2023-05-05T02:13:00.800Z,10950.00
2023-05-05T02:14:00.800Z,10544.00
2023-05-05T02:15:00.805Z,9892.00
2023-05-05T02:16:00.872Z,9871.00
2023-05-05T02:17:00.864Z,10292.00
2023-05-05T02:18:00.926Z,10548.00
2023-05-05T02:19:00.939Z,10774.00
2023-05-05T02:20:00.958Z,10804.00
2023-05-05T02:21:00.992Z,10956.00
2023-05-05T02:22:01.134Z,11078.00
2023-05-05T02:23:01.075Z,11171.00
2023-05-05T02:24:01.106Z,10812.00
2023-05-05T02:25:01.125Z,10701.00
2023-05-05T02:26:01.131Z,11131.00
2023-05-05T02:27:01.198Z,11470.00
2023-05-05T02:28:01.202Z,11042.00
2023-05-05T02:29:01.232Z,10873.00
2023-05-05T02:30:01.255Z,11458.00
2023-05-05T02:31:01.389Z,11110.00
2023-05-05T02:32:01.386Z,10752.00
2023-05-05T02:33:01.478Z,10553.00
2023-05-05T02:34:01.415Z,10503.00
2023-05-05T02:35:01.429Z,10487.00
2023-05-05T02:36:01.451Z,10111.00
2023-05-05T02:37:01.495Z,10092.00
2023-05-05T02:38:01.538Z,10357.00
2023-05-05T02:39:01.562Z,10393.00
2023-05-05T02:40:01.662Z,10598.00
2023-05-05T02:41:01.644Z,11030.00
2023-05-05T02:42:01.642Z,10658.00
2023-05-05T02:43:01.717Z,11133.00
2023-05-05T02:44:01.746Z,11146.00
2023-05-05T02:45:01.707Z,10893.00
2023-05-05T02:46:01.759Z,10685.00
2023-05-05T02:47:01.784Z,11261.00
2023-05-05T02:48:01.838Z,11226.00
2023-05-05T02:49:01.826Z,10968.00
2023-05-05T02:50:01.839Z,10766.00
2023-05-05T02:51:01.891Z,10951.00
2023-05-05T02:52:01.939Z,11589.00
2023-05-05T02:53:01.963Z,11619.00
2023-05-05T02:54:02.016Z,10904.00
2023-05-05T02:55:02.047Z,10748.00
2023-05-05T02:56:02.087Z,10476.00
2023-05-05T02:57:02.154Z,10709.00
2023-05-05T02:58:02.161Z,10634.00
2023-05-05T02:59:02.167Z,10481.00
2023-05-05T03:00:02.218Z,10611.00
2023-05-05T03:01:02.184Z,10459.00
2023-05-05T03:02:02.256Z,10743.00
2023-05-05T03:03:02.299Z,11441.00
2023-05-05T03:04:02.234Z,11414.00
2023-05-05T03:05:02.257Z,11192.00
2023-05-05T03:06:02.330Z,12100.00
2023-05-05T03:07:02.371Z,11776.00
2023-05-05T03:08:02.459Z,11279.00
2023-05-05T03:09:02.487Z,10688.00
2023-05-05T03:10:02.520Z,10603.00
2023-05-05T03:11:02.557Z,10505.00
2023-05-05T03:12:02.578Z,10408.00
2023-05-05T03:13:02.648Z,10798.00
2023-05-05T03:14:02.617Z,10506.00
2023-05-05T03:15:02.678Z,10240.00
2023-05-05T03:16:02.670Z,10110.00
2023-05-05T03:17:02.720Z,10000.00
2023-05-05T03:18:02.768Z,10160.00
2023-05-05T03:19:02.756Z,10040.00
2023-05-05T03:20:04.799Z,9587.00
2023-05-05T03:21:02.783Z,9386.00
2023-05-05T03:22:02.812Z,9824.00
2023-05-05T03:23:02.851Z,10011.00
2023-05-05T03:24:02.880Z,10231.00
2023-05-05T03:25:02.879Z,10363.00
2023-05-05T03:26:02.954Z,10387.00
2023-05-05T03:27:03.053Z,10560.00
2023-05-05T03:28:03.028Z,10842.00
2023-05-05T03:29:03.058Z,10934.00
2023-05-05T03:30:03.065Z,11347.00
2023-05-05T03:31:03.110Z,11706.00
2023-05-05T03:32:03.173Z,11551.00
2023-05-05T03:33:03.202Z,11792.00
2023-05-05T03:34:03.127Z,11556.00
2023-05-05T03:35:03.124Z,11229.00
2023-05-05T03:36:03.188Z,11307.00
2023-05-05T03:37:03.230Z,11276.00
2023-05-05T03:38:03.277Z,10922.00
2023-05-05T03:39:03.293Z,10884.00
2023-05-05T03:40:03.299Z,11179.00
2023-05-05T03:41:03.461Z,10706.00
2023-05-05T03:42:03.422Z,10378.00
2023-05-05T03:43:03.390Z,10180.00
2023-05-05T03:44:03.479Z,10277.00
2023-05-05T03:45:03.498Z,11174.00
2023-05-05T03:46:03.568Z,11424.00
2023-05-05T03:47:03.555Z,11868.00
2023-05-05T03:48:03.649Z,11814.00
2023-05-05T03:49:03.637Z,11433.00
2023-05-05T03:50:03.647Z,11140.00
2023-05-05T03:51:03.632Z,10813.00
2023-05-05T03:52:03.688Z,10591.00
2023-05-05T03:53:03.746Z,10552.00
2023-05-05T03:54:03.769Z,10568.00
2023-05-05T03:55:03.839Z,10632.00
2023-05-05T03:56:03.766Z,11062.00
2023-05-05T03:57:03.823Z,11130.00
2023-05-05T03:58:03.850Z,10925.00
2023-05-05T03:59:03.886Z,10867.00
2023-05-05T04:00:03.964Z,10868.00
2023-05-05T04:01:04.019Z,11023.00
2023-05-05T04:02:04.030Z,11098.00
2023-05-05T04:03:04.087Z,10905.00
2023-05-05T04:04:04.048Z,10642.00
2023-05-05T04:05:04.069Z,10596.00
2023-05-05T04:06:04.066Z,10646.00
2023-05-05T04:07:04.694Z,10809.00
2023-05-05T04:08:04.152Z,11030.00
2023-05-05T04:09:04.187Z,11094.00
2023-05-05T04:10:04.239Z,10958.00
2023-05-05T04:11:04.295Z,10704.00
2023-05-05T04:12:04.301Z,10600.00
2023-05-05T04:13:04.385Z,10547.00
2023-05-05T04:14:04.364Z,10487.00
2023-05-05T04:15:04.388Z,10536.00
2023-05-05T04:16:04.428Z,10598.00
2023-05-05T04:17:04.423Z,10593.00
2023-05-05T04:18:04.522Z,10582.00
2023-05-05T04:19:04.531Z,10653.00
2023-05-05T04:20:04.547Z,10818.00
2023-05-05T04:21:04.579Z,10914.00
2023-05-05T04:22:04.577Z,10938.00
2023-05-05T04:23:04.634Z,10941.00
2023-05-05T04:24:04.699Z,10920.00
2023-05-05T04:25:04.691Z,10933.00
2023-05-05T04:26:04.740Z,10907.00
2023-05-05T04:27:04.753Z,10862.00
2023-05-05T04:28:04.797Z,10811.00
2023-05-05T04:29:04.821Z,10835.00
2023-05-05T04:30:04.892Z,10874.00
2023-05-05T04:31:04.972Z,10952.00
2023-05-05T04:32:04.918Z,11038.00
2023-05-05T04:33:04.990Z,11093.00
2023-05-05T04:34:04.985Z,11209.00
2023-05-05T04:35:05.015Z,11281.00
2023-05-05T04:36:05.073Z,11592.00
2023-05-05T04:37:05.079Z,11828.00
2023-05-05T04:38:05.091Z,11905.00
2023-05-05T04:39:05.184Z,11995.00
2023-05-05T04:40:05.171Z,11986.00
2023-05-05T04:41:05.257Z,11960.00
2023-05-05T04:42:05.186Z,11807.00
2023-05-05T04:43:05.216Z,11764.00
2023-05-05T04:44:05.238Z,11691.00
2023-05-05T04:45:05.296Z,11817.00
2023-05-05T04:46:05.459Z,11832.00
2023-05-05T04:47:05.322Z,11690.00
2023-05-05T04:48:05.408Z,11735.00
2023-05-05T04:49:05.406Z,11835.00
2023-05-05T04:50:05.522Z,11798.00
2023-05-05T04:51:05.514Z,11752.00
2023-05-05T04:52:05.580Z,11755.00
2023-05-05T04:53:05.592Z,11787.00
2023-05-05T04:54:05.669Z,11826.00
2023-05-05T04:55:05.746Z,11880.00
2023-05-05T04:56:05.786Z,11938.00
2023-05-05T04:57:05.813Z,11899.00
2023-05-05T04:58:05.957Z,11776.00
2023-05-05T04:59:05.900Z,11661.00
2023-05-05T05:00:06.113Z,11701.00
2023-05-05T05:01:06.009Z,11538.00
2023-05-05T05:02:06.124Z,11445.00
2023-05-05T05:03:06.169Z,11435.00
2023-05-05T05:04:06.259Z,11500.00
2023-05-05T05:05:06.219Z,11579.00
2023-05-05T05:06:06.243Z,11632.00
2023-05-05T05:07:06.269Z,11631.00
2023-05-05T05:08:06.339Z,11680.00
2023-05-05T05:09:06.403Z,11616.00
2023-05-05T05:10:06.560Z,11672.00
2023-05-05T05:11:06.485Z,11648.00
2023-05-05T05:12:06.478Z,11556.00
2023-05-05T05:13:06.557Z,11462.00
2023-05-05T05:14:06.552Z,11388.00
2023-05-05T05:15:06.542Z,11427.00
2023-05-05T05:16:06.600Z,11289.00
2023-05-05T05:17:06.599Z,11180.00
2023-05-05T05:18:06.685Z,11025.00
2023-05-05T05:19:06.734Z,10829.00
2023-05-05T05:20:06.866Z,10832.00
2023-05-05T05:21:06.793Z,10970.00
2023-05-05T05:22:06.782Z,11073.00
2023-05-05T05:23:06.801Z,11125.00
2023-05-05T05:24:06.873Z,11183.00
2023-05-05T05:25:06.860Z,11231.00
2023-05-05T05:26:06.910Z,11246.00
2023-05-05T05:27:09.717Z,11281.00
2023-05-05T05:28:10.672Z,11334.00
2023-05-05T05:29:06.911Z,11336.00
2023-05-05T05:30:07.199Z,11345.00
2023-05-05T05:31:06.915Z,11358.00
2023-05-05T05:32:06.997Z,11349.00
2023-05-05T05:33:06.926Z,11338.00
2023-05-05T05:34:06.906Z,11414.00
2023-05-05T05:35:06.855Z,11397.00
2023-05-05T05:36:06.870Z,11197.00
2023-05-05T05:37:06.876Z,11172.00
2023-05-05T05:38:06.848Z,11075.00
2023-05-05T05:39:06.833Z,10974.00
2023-05-05T05:40:07.030Z,10965.00
2023-05-05T05:41:06.877Z,10981.00
2023-05-05T05:42:06.813Z,10911.00
2023-05-05T05:43:07.210Z,10723.00
2023-05-05T05:44:06.816Z,10714.00
2023-05-05T05:45:07.256Z,10818.00
2023-05-05T05:46:09.047Z,10853.00
2023-05-05T05:47:06.926Z,10810.00
2023-05-05T05:48:07.086Z,10820.00
2023-05-05T05:49:07.047Z,10699.00
2023-05-05T05:50:07.394Z,10707.00
2023-05-05T05:51:07.089Z,10779.00
2023-05-05T05:52:07.134Z,10633.00
2023-05-05T05:53:07.133Z,10542.00
2023-05-05T05:54:07.157Z,10468.00
2023-05-05T05:55:07.219Z,10315.00
2023-05-05T05:56:07.219Z,10231.00
2023-05-05T05:57:07.741Z,10147.00
2023-05-05T05:58:07.286Z,10098.00
2023-05-05T05:59:07.334Z,10029.00
2023-05-05T06:00:07.410Z,10256.00
2023-05-05T06:01:07.325Z,10434.00
2023-05-05T06:02:07.417Z,10501.00
2023-05-05T06:03:07.566Z,10542.00
2023-05-05T06:04:07.709Z,10573.00
2023-05-05T06:05:07.525Z,10671.00
2023-05-05T06:06:07.507Z,10694.00
2023-05-05T06:07:07.599Z,10681.00
2023-05-05T06:08:07.569Z,10570.00
2023-05-05T06:09:07.596Z,10552.00
2023-05-05T06:10:25.083Z,10478.00
2023-05-05T06:11:08.611Z,10479.00
2023-05-05T06:12:07.574Z,10468.00
2023-05-05T06:13:07.591Z,10404.00
2023-05-05T06:14:07.588Z,10191.00
2023-05-05T06:15:07.575Z,9706.00
2023-05-05T06:16:07.607Z,9325.00
2023-05-05T06:17:07.557Z,9280.00
2023-05-05T06:18:07.639Z,9057.00
2023-05-05T06:19:07.529Z,8785.00
2023-05-05T06:20:07.714Z,8746.00
2023-05-05T06:21:07.557Z,8607.00
2023-05-05T06:22:07.524Z,8618.00
2023-05-05T06:23:07.548Z,8557.00
2023-05-05T06:24:07.531Z,8589.00
2023-05-05T06:25:07.505Z,8640.00
2023-05-05T06:26:07.504Z,8717.00
2023-05-05T06:27:07.521Z,8696.00
2023-05-05T06:28:07.556Z,8452.00
2023-05-05T06:29:07.613Z,8199.00
2023-05-05T06:30:08.018Z,8161.00
2023-05-05T06:31:07.653Z,8227.00
2023-05-05T06:32:07.659Z,8634.00
2023-05-05T06:33:07.736Z,8976.00
2023-05-05T06:34:07.758Z,8347.00
2023-05-05T06:35:07.760Z,7935.00
2023-05-05T06:36:08.233Z,7814.00
2023-05-05T06:37:07.774Z,7751.00
2023-05-05T06:38:07.822Z,7700.00
2023-05-05T06:39:07.862Z,7314.00
2023-05-05T06:40:08.171Z,6823.00
2023-05-05T06:41:07.970Z,6765.00
2023-05-05T06:42:07.968Z,6808.00
2023-05-05T06:43:07.992Z,6998.00
2023-05-05T06:44:08.018Z,7227.00
2023-05-05T06:45:08.051Z,7510.00
2023-05-05T06:46:08.070Z,7683.00
2023-05-05T06:47:08.152Z,7859.00
2023-05-05T06:48:08.341Z,7983.00
2023-05-05T06:49:08.206Z,8013.00
2023-05-05T06:50:08.494Z,7827.00
2023-05-05T06:51:08.263Z,7803.00
2023-05-05T06:52:08.732Z,7822.00
2023-05-05T06:53:08.298Z,8006.00
2023-05-05T06:54:08.284Z,7710.00
2023-05-05T06:55:08.343Z,7677.00
2023-05-05T06:56:08.751Z,7592.00
2023-05-05T06:57:08.392Z,7407.00
2023-05-05T06:58:08.770Z,6850.00
2023-05-05T06:59:08.539Z,6741.00
2023-05-05T07:00:08.718Z,6708.00
2023-05-05T07:01:08.646Z,6576.00
2023-05-05T07:02:08.606Z,6190.00
2023-05-05T07:03:09.695Z,5990.00
2023-05-05T07:04:08.689Z,6228.00
2023-05-05T07:05:08.706Z,6271.00
2023-05-05T07:06:08.791Z,6202.00
2023-05-05T07:07:08.765Z,6360.00
2023-05-05T07:08:08.788Z,6648.00
2023-05-05T07:09:08.833Z,6826.00
2023-05-05T07:10:09.029Z,6959.00
2023-05-05T07:11:08.849Z,6699.00
2023-05-05T07:12:08.928Z,6592.00
2023-05-05T07:13:09.000Z,6785.00
2023-05-05T07:14:08.985Z,6945.00
2023-05-05T07:15:23.317Z,6943.00
2023-05-05T07:16:10.050Z,6947.00
2023-05-05T07:17:08.936Z,6861.00
2023-05-05T07:18:08.986Z,6833.00
2023-05-05T07:19:08.950Z,6930.00
2023-05-05T07:20:09.245Z,6924.00
2023-05-05T07:21:08.952Z,6750.00
2023-05-05T07:22:09.101Z,6691.00
2023-05-05T07:23:08.925Z,6437.00
2023-05-05T07:24:08.915Z,6461.00
2023-05-05T07:25:08.921Z,6641.00
2023-05-05T07:26:08.911Z,6369.00
2023-05-05T07:27:08.909Z,6297.00
2023-05-05T07:28:08.924Z,6317.00
2023-05-05T07:29:09.286Z,6486.00
2023-05-05T07:30:13.109Z,6151.00
2023-05-05T07:31:09.921Z,6041.00
2023-05-05T07:32:08.904Z,5963.00
2023-05-05T07:33:08.949Z,6031.00
2023-05-05T07:34:08.855Z,6020.00
2023-05-05T07:35:08.909Z,6218.00
2023-05-05T07:36:08.858Z,6272.00
2023-05-05T07:37:08.825Z,5778.00
2023-05-05T07:38:10.781Z,5613.00
2023-05-05T07:39:09.269Z,5584.00
2023-05-05T07:40:09.511Z,5685.00
2023-05-05T07:41:08.810Z,5397.00
2023-05-05T07:42:08.805Z,5388.00
2023-05-05T07:43:08.782Z,5583.00
2023-05-05T07:44:09.244Z,5897.00
2023-05-05T07:45:08.860Z,5572.00
2023-05-05T07:46:08.883Z,5629.00
2023-05-05T07:47:08.908Z,5596.00
2023-05-05T07:48:09.017Z,5351.00
2023-05-05T07:49:08.960Z,4991.00
2023-05-05T07:50:09.288Z,4703.00
2023-05-05T07:51:09.035Z,5002.00
2023-05-05T07:52:09.059Z,4761.00
2023-05-05T07:53:14.633Z,4281.00
2023-05-05T07:54:10.236Z,4029.00
2023-05-05T07:55:09.081Z,3920.00
2023-05-05T07:56:09.139Z,3796.00
2023-05-05T07:57:09.079Z,3759.00
2023-05-05T07:58:09.071Z,3494.00
2023-05-05T07:59:09.050Z,3352.00
2023-05-05T08:00:09.454Z,3258.00
2023-05-05T08:01:09.067Z,3664.00
2023-05-05T08:02:09.045Z,3701.00
2023-05-05T08:03:11.618Z,3613.00
2023-05-05T08:04:09.082Z,3576.00
2023-05-05T08:05:09.496Z,3757.00
2023-05-05T08:06:09.020Z,3946.00
2023-05-05T08:07:09.002Z,4215.00
2023-05-05T08:08:08.964Z,3706.00
2023-05-05T08:09:08.974Z,3351.00
2023-05-05T08:10:09.095Z,3465.00
2023-05-05T08:11:08.996Z,3645.00
2023-05-05T08:12:08.986Z,3823.00
2023-05-05T08:13:09.020Z,3466.00
2023-05-05T08:14:08.953Z,3402.00
2023-05-05T08:15:09.375Z,3306.00
2023-05-05T08:16:08.985Z,3189.00
2023-05-05T08:17:08.911Z,2901.00
2023-05-05T08:18:08.925Z,2953.00
2023-05-05T08:19:21.076Z,2829.00
2023-05-05T08:20:09.920Z,2835.00
2023-05-05T08:21:08.880Z,2618.00
2023-05-05T08:22:08.889Z,2419.00
2023-05-05T08:23:08.896Z,2287.00
2023-05-05T08:24:08.934Z,2164.00
2023-05-05T08:25:09.159Z,2103.00
2023-05-05T08:26:08.914Z,1893.00
2023-05-05T08:27:08.862Z,1868.00
2023-05-05T08:28:08.869Z,1749.00
2023-05-05T08:29:09.570Z,1558.00
2023-05-05T08:30:08.894Z,1559.00
2023-05-05T08:31:08.931Z,1529.00
2023-05-05T08:32:08.876Z,1590.00
2023-05-05T08:33:08.968Z,1683.00
2023-05-05T08:34:08.958Z,2022.00
2023-05-05T08:35:09.322Z,2189.00
2023-05-05T08:36:09.322Z,2303.00
2023-05-05T08:37:09.018Z,2011.00
2023-05-05T08:38:09.108Z,1550.00
2023-05-05T08:39:09.120Z,1719.00
2023-05-05T08:40:09.141Z,1527.00
2023-05-05T08:41:09.163Z,1699.00
2023-05-05T08:42:09.275Z,1806.00
2023-05-05T08:43:09.265Z,1835.00
2023-05-05T08:44:09.292Z,1333.00
2023-05-05T08:45:09.919Z,1267.00
2023-05-05T08:46:09.355Z,1434.00
2023-05-05T08:47:09.440Z,1240.00
2023-05-05T08:48:09.503Z,1339.00
2023-05-05T08:49:09.482Z,1572.00
2023-05-05T08:50:09.513Z,1739.00
2023-05-05T08:51:09.543Z,1972.00
2023-05-05T08:52:09.563Z,1652.00
2023-05-05T08:53:09.577Z,1217.00
2023-05-05T08:54:09.569Z,1040.00
2023-05-05T08:55:09.766Z,875.00
2023-05-05T08:56:09.658Z,794.00
2023-05-05T08:57:09.732Z,658.00
2023-05-05T08:58:09.748Z,593.00
2023-05-05T08:59:09.742Z,652.00
2023-05-05T09:00:09.777Z,622.00
2023-05-05T09:01:09.780Z,585.00
2023-05-05T09:02:09.804Z,620.00
2023-05-05T09:03:09.852Z,630.00
2023-05-05T09:04:10.291Z,500.00
2023-05-05T09:05:10.093Z,500.00
2023-05-05T09:06:09.898Z,498.00
2023-05-05T09:07:09.899Z,400.00
2023-05-05T09:08:09.947Z,485.00
2023-05-05T09:09:09.938Z,465.00
2023-05-05T09:10:10.036Z,419.00
2023-05-05T09:11:09.993Z,643.00
2023-05-05T09:12:10.046Z,868.00
2023-05-05T09:13:10.106Z,630.00
2023-05-05T09:14:10.162Z,657.00
2023-05-05T09:15:10.188Z,574.00
2023-05-05T09:16:10.169Z,530.00
2023-05-05T09:17:10.237Z,500.00
2023-05-05T09:18:10.256Z,466.00
2023-05-05T09:19:10.286Z,471.00
2023-05-05T09:20:10.310Z,508.00
2023-05-05T09:21:10.289Z,524.00
2023-05-05T09:22:10.310Z,580.00
2023-05-05T09:23:10.335Z,640.00
2023-05-05T09:24:10.826Z,803.00
2023-05-05T09:25:10.516Z,718.00
2023-05-05T09:26:10.491Z,645.00
2023-05-05T09:27:10.801Z,646.00
2023-05-05T09:28:10.574Z,641.00
2023-05-05T09:29:10.628Z,1038.00
2023-05-05T09:30:10.767Z,837.00
2023-05-05T09:31:10.714Z,967.00
2023-05-05T09:32:10.754Z,1032.00
2023-05-05T09:33:10.828Z,765.00
2023-05-05T09:34:10.791Z,1065.00
2023-05-05T09:35:10.828Z,1211.00
2023-05-05T09:36:10.848Z,1272.00
2023-05-05T09:37:10.842Z,1181.00
2023-05-05T09:38:10.916Z,1271.00
2023-05-05T09:39:10.925Z,1216.00
2023-05-05T09:40:10.954Z,1114.00
2023-05-05T09:41:10.988Z,534.00
2023-05-05T09:42:10.999Z,402.00
2023-05-05T09:43:11.062Z,400.00
2023-05-05T09:44:11.108Z,400.00
2023-05-05T09:45:11.155Z,464.00
2023-05-05T09:46:11.157Z,613.00
2023-05-05T09:47:26.068Z,650.00
2023-05-05T09:48:12.256Z,651.00
2023-05-05T09:49:11.155Z,536.00
2023-05-05T09:50:11.221Z,517.00
2023-05-05T09:51:11.171Z,761.00
2023-05-05T09:52:11.159Z,723.00
2023-05-05T09:53:11.165Z,606.00
2023-05-05T09:54:11.286Z,721.00
2023-05-05T09:55:11.127Z,912.00
2023-05-05T09:56:11.136Z,1019.00
2023-05-05T09:57:11.102Z,993.00
2023-05-05T09:58:11.177Z,665.00
2023-05-05T09:59:11.160Z,589.00
2023-05-05T10:00:11.334Z,961.00
2023-05-05T10:01:11.148Z,732.00
2023-05-05T10:02:11.284Z,614.00
2023-05-05T10:03:11.112Z,616.00
2023-05-05T10:04:11.090Z,578.00
2023-05-05T10:05:11.105Z,611.00
2023-05-05T10:06:11.070Z,660.00
2023-05-05T10:07:11.086Z,630.00
2023-05-05T10:08:11.086Z,550.00
2023-05-05T10:09:11.334Z,617.00
2023-05-05T10:10:11.366Z,623.00
2023-05-05T10:11:11.220Z,632.00
2023-05-05T10:12:11.176Z,937.00
2023-05-05T10:13:11.357Z,1048.00
2023-05-05T10:14:11.198Z,813.00
2023-05-05T10:15:11.262Z,948.00
2023-05-05T10:16:11.341Z,1143.00
2023-05-05T10:17:11.304Z,962.00
2023-05-05T10:18:11.521Z,787.00
2023-05-05T10:19:11.392Z,569.00
2023-05-05T10:20:11.393Z,594.00
2023-05-05T10:21:11.447Z,613.00
2023-05-05T10:22:11.438Z,924.00
2023-05-05T10:23:11.450Z,921.00
2023-05-05T10:24:11.516Z,726.00
2023-05-05T10:25:11.482Z,1184.00
2023-05-05T10:26:11.555Z,878.00
2023-05-05T10:27:12.741Z,988.00
2023-05-05T10:28:11.569Z,677.00
2023-05-05T10:29:11.590Z,637.00
2023-05-05T10:30:11.686Z,1032.00
2023-05-05T10:31:24.192Z,1013.00
2023-05-05T10:32:40.535Z,673.00
2023-05-05T10:33:30.222Z,526.00
2023-05-05T10:34:12.797Z,527.00
2023-05-05T10:35:11.572Z,400.00
2023-05-05T10:36:11.559Z,622.00
2023-05-05T10:37:11.574Z,557.00
2023-05-05T10:38:11.632Z,409.00
2023-05-05T10:39:11.553Z,414.00
2023-05-05T10:40:11.692Z,559.00
2023-05-05T10:41:11.598Z,525.00
2023-05-05T10:42:11.563Z,718.00
2023-05-05T10:43:11.502Z,646.00
2023-05-05T10:44:11.505Z,698.00
2023-05-05T10:45:11.556Z,683.00
2023-05-05T10:46:11.521Z,823.00
2023-05-05T10:47:11.516Z,1151.00
2023-05-05T10:48:11.514Z,1159.00
2023-05-05T10:49:13.264Z,748.00
2023-05-05T10:50:11.546Z,1227.00
2023-05-05T10:51:11.503Z,1688.00
2023-05-05T10:52:11.484Z,1730.00
2023-05-05T10:53:11.546Z,1468.00
2023-05-05T10:54:11.509Z,1317.00
2023-05-05T10:55:11.483Z,1277.00
2023-05-05T10:56:11.446Z,1151.00
2023-05-05T10:57:11.480Z,1223.00
2023-05-05T10:58:11.464Z,1331.00
2023-05-05T10:59:11.452Z,1562.00
2023-05-05T11:00:12.229Z,1706.00
2023-05-05T11:01:11.505Z,1796.00
2023-05-05T11:02:11.478Z,1745.00
2023-05-05T11:03:11.500Z,1876.00
2023-05-05T11:04:11.376Z,1878.00
2023-05-05T11:05:11.403Z,1861.00
2023-05-05T11:06:11.476Z,846.00
2023-05-05T11:07:14.619Z,563.00
2023-05-05T11:08:11.383Z,783.00
2023-05-05T11:09:11.363Z,812.00
2023-05-05T11:10:11.512Z,1170.00
2023-05-05T11:11:11.391Z,1213.00
2023-05-05T11:12:11.373Z,1414.00
2023-05-05T11:13:11.409Z,773.00
2023-05-05T11:14:11.339Z,856.00
2023-05-05T11:15:11.326Z,510.00
2023-05-05T11:16:11.331Z,614.00
2023-05-05T11:17:11.375Z,709.00
2023-05-05T11:18:11.424Z,754.00
2023-05-05T11:19:11.378Z,478.00
2023-05-05T11:20:11.321Z,507.00
2023-05-05T11:21:11.343Z,539.00
2023-05-05T11:22:11.351Z,555.00
2023-05-05T11:23:11.274Z,565.00
2023-05-05T11:24:11.283Z,471.00
2023-05-05T11:25:11.295Z,426.00
2023-05-05T11:26:11.254Z,575.00
2023-05-05T11:27:11.256Z,503.00
2023-05-05T11:28:11.327Z,443.00
2023-05-05T11:29:11.238Z,432.00
2023-05-05T11:30:11.337Z,592.00
2023-05-05T11:31:11.221Z,682.00
2023-05-05T11:32:11.312Z,651.00
2023-05-05T11:33:11.210Z,675.00
2023-05-05T11:34:11.371Z,758.00
2023-05-05T11:35:11.278Z,734.00
2023-05-05T11:36:11.179Z,1008.00
2023-05-05T11:37:11.231Z,855.00
2023-05-05T11:38:11.284Z,883.00
2023-05-05T11:39:11.171Z,747.00
2023-05-05T11:40:11.201Z,920.00
2023-05-05T11:41:11.220Z,643.00
2023-05-05T11:42:11.201Z,927.00
2023-05-05T11:43:11.170Z,625.00
2023-05-05T11:44:11.195Z,460.00
2023-05-05T11:45:11.157Z,441.00
2023-05-05T11:46:11.135Z,452.00
2023-05-05T11:47:11.152Z,577.00
2023-05-05T11:48:11.215Z,656.00
2023-05-05T11:49:11.118Z,622.00
2023-05-05T11:50:11.118Z,663.00
2023-05-05T11:51:11.103Z,498.00
2023-05-05T11:52:11.142Z,528.00
2023-05-05T11:53:11.123Z,676.00
2023-05-05T11:54:11.146Z,600.00
2023-05-05T11:55:11.090Z,607.00
2023-05-05T11:56:11.058Z,473.00
2023-05-05T11:57:11.064Z,793.00
2023-05-05T11:58:11.075Z,570.00
2023-05-05T11:59:11.066Z,519.00
2023-05-05T12:00:11.225Z,651.00
2023-05-05T12:01:11.031Z,632.00
2023-05-05T12:02:11.093Z,575.00